createdAt,value
2019-01-22T00:02:53.786Z,52.73
2019-01-22T00:05:22.855Z,54.08
2019-01-22T00:07:55.292Z,51.80
2019-01-22T00:10:24.450Z,41.57
2019-01-22T00:12:53.515Z,50.53
2019-01-22T00:15:22.577Z,40.60
2019-01-22T00:17:51.636Z,51.78
2019-01-22T00:20:26.139Z,50.97
2019-01-22T00:22:55.203Z,40.80
2019-01-22T00:28:10.388Z,52.97
2019-01-22T00:30:43.484Z,52.50
2019-01-22T00:33:16.187Z,52.50
2019-01-22T00:35:45.247Z,39.57
2019-01-22T00:38:14.307Z,45.60
2019-01-22T00:40:45.294Z,47.30
2019-01-22T00:45:51.930Z,48.47
2019-01-22T00:48:21.716Z,49.90
2019-01-22T00:50:50.937Z,47.78
2019-01-22T00:53:21.910Z,48.63
2019-01-22T00:55:51.894Z,36.43
2019-01-22T00:58:21.650Z,46.13
2019-01-22T01:00:54.071Z,37.07
2019-01-22T01:03:28.827Z,47.97
2019-01-22T01:06:01.871Z,49.60
2019-01-22T01:08:30.935Z,39.43
2019-01-22T01:11:03.476Z,50.92
2019-01-22T01:13:32.543Z,39.23
2019-01-22T01:16:06.655Z,49.72
2019-01-22T01:21:14.555Z,51.67
2019-01-22T01:23:43.624Z,48.87
2019-01-22T01:26:12.787Z,38.43
2019-01-22T01:28:41.842Z,50.05
2019-01-22T01:31:16.038Z,52.53
2019-01-22T01:33:56.964Z,40.53
2019-01-22T01:36:26.031Z,50.85
2019-01-22T01:38:57.075Z,52.85
2019-01-22T01:41:28.114Z,39.73
2019-01-22T01:43:57.315Z,51.47
2019-01-22T01:46:26.396Z,56.65
2019-01-22T01:49:13.807Z,42.73
2019-01-22T01:51:42.883Z,52.97
2019-01-22T01:54:11.983Z,53.70
2019-01-22T01:56:41.051Z,54.97
2019-01-22T01:59:18.157Z,51.53
2019-01-22T02:01:47.227Z,40.40
2019-01-22T02:04:25.558Z,48.78
2019-01-22T02:06:54.174Z,41.10
2019-01-22T02:09:25.151Z,52.03
2019-01-22T02:11:54.241Z,53.90
2019-01-22T02:14:23.305Z,41.60
2019-01-22T02:17:10.906Z,52.72
2019-01-22T02:19:40.046Z,39.27
2019-01-22T02:25:03.087Z,53.90
2019-01-22T02:33:13.840Z,53.70
2019-01-22T02:35:51.462Z,38.20
2019-01-22T02:47:06.881Z,52.97
2019-01-22T02:55:02.322Z,52.58
2019-01-22T03:02:59.565Z,53.87
2019-01-22T03:05:51.166Z,46.27
2019-01-22T03:20:08.553Z,56.08
2019-01-22T03:25:32.970Z,54.10
2019-01-22T03:28:23.097Z,41.60
2019-01-22T03:30:58.720Z,56.72
2019-01-22T03:33:41.404Z,54.33
2019-01-22T03:38:49.505Z,54.23
2019-01-22T03:47:30.308Z,53.03
2019-01-22T03:53:33.862Z,54.00
2019-01-22T03:58:42.084Z,54.42
2019-01-22T04:01:11.157Z,40.57
2019-01-22T04:03:41.130Z,51.75
2019-01-22T04:06:13.748Z,54.50
2019-01-22T04:08:42.832Z,42.63
2019-01-22T04:11:16.883Z,53.45
2019-01-22T04:13:45.936Z,59.00
2019-01-22T04:16:23.388Z,46.47
2019-01-22T04:18:52.898Z,53.67
2019-01-22T04:21:23.001Z,54.10
2019-01-22T04:24:01.437Z,54.63
2019-01-22T04:29:14.935Z,54.65
2019-01-22T04:31:44.705Z,41.50
2019-01-22T04:34:29.607Z,51.63
2019-01-22T04:37:18.135Z,55.75
2019-01-22T04:45:44.539Z,60.17
2019-01-22T04:51:01.999Z,55.30
2019-01-22T04:53:45.568Z,56.97
2019-01-22T05:02:22.757Z,55.03
2019-01-22T05:04:56.172Z,54.92
2019-01-22T05:13:25.999Z,53.92
2019-01-22T05:19:06.260Z,50.80
2019-01-22T05:24:29.184Z,53.72
2019-01-22T05:33:25.801Z,57.35
2019-01-22T05:39:10.451Z,55.60
2019-01-22T05:47:26.698Z,51.25
2019-01-22T05:55:28.574Z,56.37
2019-01-22T05:58:00.360Z,42.93
2019-01-22T06:03:20.980Z,59.15
2019-01-22T06:08:50.491Z,57.50
2019-01-22T06:26:08.497Z,51.80
2019-01-22T06:32:09.901Z,50.10
2019-01-22T06:34:52.194Z,37.03
2019-01-22T06:48:23.602Z,56.77
2019-01-22T06:59:14.570Z,51.17
2019-01-22T07:02:05.164Z,40.53
2019-01-22T07:04:50.376Z,49.77
2019-01-22T07:10:20.047Z,46.30
2019-01-22T07:12:52.406Z,41.50
2019-01-22T07:15:36.923Z,50.15
2019-01-22T07:18:12.367Z,43.10
2019-01-22T07:20:45.174Z,50.92
2019-01-22T07:23:19.148Z,52.47
2019-01-22T07:28:47.851Z,52.87
2019-01-22T07:31:21.439Z,52.65
2019-01-22T07:40:21.527Z,52.60
2019-01-22T07:42:55.855Z,40.57
2019-01-22T07:45:28.792Z,47.47
2019-01-22T07:47:58.945Z,37.70
2019-01-22T07:53:29.970Z,48.27
2019-01-22T07:56:09.169Z,38.23
2019-01-22T07:58:42.655Z,44.90
2019-01-22T08:01:23.827Z,47.85
2019-01-22T08:04:16.431Z,37.03
2019-01-22T08:12:12.011Z,51.47
2019-01-22T08:17:45.027Z,49.80
2019-01-22T08:20:29.326Z,37.40
2019-01-22T08:23:15.010Z,43.75
2019-01-22T08:32:17.764Z,41.80
2019-01-22T08:41:26.036Z,41.90
2019-01-22T08:47:10.279Z,43.85
2019-01-22T08:52:54.902Z,41.85
2019-01-22T08:55:30.299Z,39.65
2019-01-22T09:04:13.987Z,44.53
2019-01-22T09:07:04.619Z,35.27
2019-01-22T09:18:02.750Z,40.50
2019-01-22T09:20:45.705Z,39.42
2019-01-22T09:26:24.388Z,42.35
2019-01-22T09:38:33.891Z,39.30
2019-01-22T09:41:03.119Z,38.90
2019-01-22T09:43:53.275Z,37.97
2019-01-22T09:46:22.362Z,31.67
2019-01-22T09:48:51.435Z,37.75
2019-01-22T09:51:20.515Z,38.25
2019-01-22T09:53:58.938Z,39.20
2019-01-22T09:56:37.684Z,27.70
2019-01-22T09:59:07.713Z,31.27
2019-01-22T10:01:38.726Z,31.30
2019-01-22T10:04:08.784Z,34.92
2019-01-22T10:06:41.032Z,31.30
2019-01-22T10:09:10.206Z,35.45
2019-01-22T10:11:44.907Z,34.97
2019-01-22T10:14:14.075Z,33.80
2019-01-22T10:16:46.624Z,36.75
2019-01-22T10:19:15.752Z,28.10
2019-01-22T10:21:44.961Z,33.67
2019-01-22T10:24:18.698Z,32.73
2019-01-22T10:26:47.911Z,35.30
2019-01-22T10:29:17.024Z,39.75
2019-01-22T10:31:50.414Z,37.43
2019-01-22T10:34:17.320Z,29.87
2019-01-22T10:39:21.742Z,36.65
2019-01-22T10:41:51.731Z,36.53
2019-01-22T10:44:20.887Z,28.63
2019-01-22T10:46:50.039Z,28.07
2019-01-22T10:49:19.079Z,25.53
2019-01-22T10:51:49.268Z,32.60
2019-01-22T10:54:18.382Z,34.92
2019-01-22T10:56:53.071Z,27.73
2019-01-22T10:59:22.333Z,26.23
2019-01-22T11:01:58.975Z,34.22
2019-01-22T11:04:29.057Z,27.30
2019-01-22T11:06:58.129Z,28.40
2019-01-22T11:09:27.168Z,34.95
2019-01-22T11:11:56.215Z,28.30
2019-01-22T11:14:25.294Z,28.00
2019-01-22T11:17:01.548Z,34.20
2019-01-22T11:19:30.706Z,27.20
2019-01-22T11:21:59.851Z,27.33
2019-01-22T11:24:32.670Z,32.97
2019-01-22T11:27:01.836Z,27.93
2019-01-22T11:29:31.864Z,27.73
2019-01-22T11:32:01.043Z,27.80
2019-01-22T11:34:34.657Z,28.63
2019-01-22T11:37:03.734Z,32.93
2019-01-22T11:39:32.837Z,29.50
2019-01-22T11:42:02.002Z,35.80
2019-01-22T11:44:33.011Z,36.35
2019-01-22T11:47:03.003Z,29.00
2019-01-22T11:49:32.105Z,28.20
2019-01-22T11:52:01.135Z,30.13
2019-01-22T11:54:33.310Z,27.53
2019-01-22T11:59:38.939Z,33.60
2019-01-22T12:02:08.043Z,30.90
2019-01-22T12:04:49.098Z,25.63
2019-01-22T12:07:18.156Z,27.70
2019-01-22T12:09:50.755Z,26.97
2019-01-22T12:12:25.448Z,34.25
2019-01-22T12:15:02.528Z,28.00
2019-01-22T12:17:42.475Z,27.80
2019-01-22T12:23:02.664Z,33.17
2019-01-22T12:25:31.722Z,23.80
2019-01-22T12:28:00.797Z,26.90
2019-01-22T12:30:32.630Z,34.33
2019-01-22T12:33:01.681Z,29.47
2019-01-22T12:35:51.351Z,25.33
2019-01-22T12:38:22.237Z,32.97
2019-01-22T12:40:57.245Z,29.97
2019-01-22T12:46:02.049Z,32.05
2019-01-22T12:48:32.017Z,32.50
2019-01-22T12:51:04.436Z,26.83
2019-01-22T12:56:13.494Z,32.57
2019-01-22T13:01:21.231Z,31.50
2019-01-22T13:03:50.285Z,24.37
2019-01-22T13:06:19.356Z,24.97
2019-01-22T13:08:48.413Z,31.58
2019-01-22T13:11:17.450Z,26.37
2019-01-22T13:13:58.456Z,24.50
2019-01-22T13:16:28.541Z,23.57
2019-01-22T13:21:33.370Z,34.83
2019-01-22T13:24:02.399Z,27.87
2019-01-22T13:26:39.566Z,26.30
2019-01-22T13:29:08.659Z,25.90
2019-01-22T13:31:37.809Z,29.98
2019-01-22T13:34:07.077Z,27.70
2019-01-22T13:36:36.136Z,27.97
2019-01-22T13:39:05.239Z,26.27
2019-01-22T13:41:35.351Z,21.93
2019-01-22T13:44:04.418Z,23.57
2019-01-22T13:46:34.451Z,24.27
2019-01-22T13:49:03.486Z,25.40
2019-01-22T13:51:32.534Z,26.40
2019-01-22T13:54:02.505Z,25.57
2019-01-22T13:59:06.744Z,29.15
2019-01-22T14:01:35.801Z,30.88
2019-01-22T14:04:04.846Z,25.10
2019-01-22T14:06:34.917Z,30.23
2019-01-22T14:09:04.954Z,28.03
2019-01-22T14:11:33.995Z,25.60
2019-01-22T14:14:03.037Z,26.13
2019-01-22T14:16:32.084Z,29.60
2019-01-22T14:19:01.134Z,25.83
2019-01-22T14:21:33.297Z,26.57
2019-01-22T14:24:02.357Z,25.03
2019-01-22T14:26:31.411Z,26.93
2019-01-22T14:29:02.376Z,24.37
2019-01-22T14:34:07.274Z,29.85
2019-01-22T14:39:13.399Z,30.67
2019-01-22T14:41:42.467Z,26.80
2019-01-22T14:44:12.336Z,25.30
2019-01-22T14:46:41.398Z,25.23
2019-01-22T14:49:10.566Z,26.27
2019-01-22T14:51:47.518Z,25.57
2019-01-22T14:54:21.292Z,28.07
2019-01-22T14:56:50.520Z,25.20
2019-01-22T14:59:19.575Z,23.60
2019-01-22T15:01:50.742Z,21.73
2019-01-22T15:04:19.806Z,20.43
2019-01-22T15:06:56.718Z,21.63
2019-01-22T15:09:26.781Z,22.03
2019-01-22T15:17:10.228Z,28.62
2019-01-22T15:19:39.296Z,26.77
2019-01-22T15:22:08.372Z,29.17
2019-01-22T15:27:19.595Z,29.83
2019-01-22T15:29:50.627Z,25.00
2019-01-22T15:32:19.751Z,22.40
2019-01-22T15:34:54.183Z,24.30
2019-01-22T15:40:00.456Z,33.38
2019-01-22T15:42:50.511Z,34.40
2019-01-22T15:45:19.605Z,24.70
2019-01-22T15:47:48.680Z,32.17
2019-01-22T15:50:18.489Z,26.40
2019-01-22T15:52:47.607Z,32.63
2019-01-22T15:55:20.135Z,33.53
2019-01-22T15:57:56.616Z,25.97
2019-01-22T16:00:26.681Z,31.40
2019-01-22T16:02:55.761Z,25.37
2019-01-22T16:05:24.807Z,31.15
2019-01-22T16:08:02.601Z,25.20
2019-01-22T16:13:10.159Z,31.40
2019-01-22T16:18:21.609Z,32.80
2019-01-22T16:20:54.009Z,26.60
2019-01-22T16:23:24.093Z,31.92
2019-01-22T16:25:57.882Z,34.30
2019-01-22T16:28:29.012Z,26.50
2019-01-22T16:31:03.223Z,33.00
2019-01-22T16:33:32.312Z,26.73
2019-01-22T16:36:02.331Z,35.10
2019-01-22T16:38:31.548Z,33.78
2019-01-22T16:41:02.594Z,27.53
2019-01-22T16:46:33.635Z,35.90
2019-01-22T16:49:02.751Z,35.72
2019-01-22T16:51:31.814Z,33.35
2019-01-22T16:54:02.856Z,27.00
2019-01-22T16:59:08.731Z,34.30
2019-01-22T17:01:43.559Z,33.60
2019-01-22T17:04:13.505Z,28.60
2019-01-22T17:09:30.404Z,31.67
2019-01-22T17:11:59.493Z,34.60
2019-01-22T17:14:28.535Z,30.27
2019-01-22T17:19:34.922Z,34.07
2019-01-22T17:22:15.766Z,37.35
2019-01-22T17:24:44.850Z,51.30
2019-01-22T17:27:13.942Z,37.90
2019-01-22T17:32:39.544Z,35.65
2019-01-22T17:40:39.883Z,35.57
2019-01-22T17:43:24.115Z,27.10
2019-01-22T17:46:09.210Z,33.33
2019-01-22T17:48:39.252Z,39.90
2019-01-22T17:51:09.319Z,29.37
2019-01-22T17:53:38.486Z,38.60
2019-01-22T17:56:08.616Z,37.28
2019-01-22T17:58:39.470Z,29.93
2019-01-22T18:01:10.595Z,32.80
2019-01-22T18:03:39.723Z,29.90
2019-01-22T18:06:08.783Z,36.00
2019-01-22T18:08:37.873Z,33.10
2019-01-22T18:11:07.964Z,37.63
2019-01-22T18:13:36.999Z,31.60
2019-01-22T18:18:54.745Z,40.00
2019-01-22T18:21:24.781Z,34.07
2019-01-22T18:23:54.784Z,37.92
2019-01-22T18:26:24.751Z,28.60
2019-01-22T18:28:53.813Z,36.63
2019-01-22T18:31:24.990Z,34.72
2019-01-22T18:33:54.320Z,30.30
2019-01-22T18:36:23.515Z,35.40
2019-01-22T18:39:03.495Z,38.13
2019-01-22T18:41:33.120Z,39.00
2019-01-22T18:46:39.872Z,35.37
2019-01-22T18:49:08.922Z,37.15
2019-01-22T18:51:37.976Z,30.10
2019-01-22T18:54:07.023Z,34.65
2019-01-22T18:56:36.092Z,31.10
2019-01-22T18:59:07.164Z,35.78
2019-01-22T19:01:36.234Z,33.57
2019-01-22T19:08:08.839Z,37.47
2019-01-22T19:12:24.837Z,39.87
2019-01-22T19:14:58.652Z,38.47
2019-01-22T19:17:27.783Z,31.00
2019-01-22T19:19:56.865Z,36.92
2019-01-22T19:22:25.931Z,37.22
2019-01-22T19:24:54.990Z,30.30
2019-01-22T19:27:24.043Z,35.85
2019-01-22T19:29:53.103Z,41.03
2019-01-22T19:32:22.161Z,32.10
2019-01-22T19:37:30.539Z,38.53
2019-01-22T19:42:38.852Z,41.13
2019-01-22T19:45:07.978Z,49.22
2019-01-22T19:47:38.531Z,34.77
2019-01-22T19:50:08.077Z,39.65
2019-01-22T19:52:41.248Z,40.05
2019-01-22T19:55:16.200Z,30.53
2019-01-22T19:57:49.173Z,36.42
2019-01-22T20:00:19.177Z,39.45
2019-01-22T20:02:48.235Z,31.20
2019-01-22T20:05:17.311Z,41.13
2019-01-22T20:07:46.449Z,39.97
2019-01-22T20:10:18.887Z,30.90
2019-01-22T20:12:49.700Z,39.75
2019-01-22T20:15:18.738Z,34.87
2019-01-22T20:17:47.799Z,41.78
2019-01-22T20:20:17.714Z,40.47
2019-01-22T20:22:46.792Z,32.10
2019-01-22T20:25:15.842Z,41.05
2019-01-22T20:27:49.505Z,40.05
2019-01-22T20:33:03.430Z,39.55
2019-01-22T20:35:47.508Z,41.00
2019-01-22T20:38:16.599Z,30.07
2019-01-22T20:40:46.638Z,42.85
2019-01-22T20:43:16.635Z,32.00
2019-01-22T20:46:02.994Z,37.70
2019-01-22T20:48:32.132Z,40.33
2019-01-22T20:51:09.024Z,35.17
2019-01-22T20:56:26.473Z,40.10
2019-01-22T20:58:55.784Z,42.05
2019-01-22T21:01:24.843Z,30.87
2019-01-22T21:03:53.936Z,38.65
2019-01-22T21:06:22.996Z,39.67
2019-01-22T21:09:02.206Z,38.00
2019-01-22T21:11:32.191Z,29.70
2019-01-22T21:14:01.276Z,39.80
2019-01-22T21:16:30.363Z,39.97
2019-01-22T21:19:00.328Z,40.05
2019-01-22T21:21:36.871Z,31.30
2019-01-22T21:26:41.878Z,41.50
2019-01-22T21:29:32.035Z,30.80
2019-01-22T21:32:13.086Z,40.70
2019-01-22T21:34:48.059Z,42.95
2019-01-22T21:39:54.284Z,45.88
2019-01-22T21:42:29.197Z,32.80
2019-01-22T21:45:24.869Z,42.97
2019-01-22T21:50:42.290Z,45.45
2019-01-22T21:53:24.672Z,34.67
2019-01-22T21:55:56.195Z,43.25
2019-01-22T21:58:25.290Z,32.43
2019-01-22T22:00:59.544Z,40.33
2019-01-22T22:03:29.664Z,40.25
2019-01-22T22:08:45.857Z,42.30
2019-01-22T22:11:19.217Z,35.47
2019-01-22T22:16:30.502Z,43.60
2019-01-22T22:19:13.073Z,32.00
2019-01-22T22:21:42.301Z,41.83
2019-01-22T22:24:11.373Z,42.25
2019-01-22T22:26:40.510Z,33.10
2019-01-22T22:29:09.659Z,40.53
2019-01-22T22:31:39.491Z,44.88
2019-01-22T22:36:52.358Z,43.25
2019-01-22T22:39:21.803Z,32.33
2019-01-22T22:41:51.042Z,45.17
2019-01-22T22:44:20.882Z,44.38
2019-01-22T22:49:29.920Z,44.78
2019-01-22T22:51:59.104Z,34.60
2019-01-22T22:54:28.378Z,44.38
2019-01-22T22:57:06.367Z,45.72
2019-01-22T22:59:35.618Z,32.30
2019-01-22T23:02:04.740Z,42.90
2019-01-22T23:04:34.228Z,45.88
2019-01-22T23:07:03.363Z,35.63
2019-01-22T23:09:33.680Z,42.17
2019-01-22T23:14:42.938Z,43.90
2019-01-22T23:17:12.028Z,32.53
2019-01-22T23:19:41.334Z,41.63
2019-01-22T23:24:46.618Z,44.10
2019-01-22T23:27:17.781Z,46.03
2019-01-22T23:29:46.867Z,34.57
2019-01-22T23:32:30.055Z,42.17
2019-01-22T23:37:38.931Z,45.30
2019-01-22T23:42:45.263Z,43.60
2019-01-22T23:45:14.348Z,45.72
2019-01-22T23:47:43.673Z,45.95
2019-01-22T23:50:22.387Z,32.67
2019-01-22T23:52:56.864Z,40.95
2019-01-22T23:55:30.628Z,41.60
2019-01-22T23:58:00.285Z,34.60
